sensor_id;sensor_type;location;lat;lon;timestamp;P1;durP1;ratioP1;P2;durP2;ratioP2
37971;SDS011;23794;48.234;8.344;2023-01-29T00:00:19;11.07;;;7.65;;
37971;SDS011;23794;48.234;8.344;2023-01-29T00:02:46;12.25;;;7.63;;
37971;SDS011;23794;48.234;8.344;2023-01-29T00:05:13;11.07;;;7.72;;
37971;SDS011;23794;48.234;8.344;2023-01-29T00:08:00;10.68;;;7.25;;
37971;SDS011;23794;48.234;8.344;2023-01-29T00:10:27;11.38;;;7.95;;
37971;SDS011;23794;48.234;8.344;2023-01-29T00:12:53;11.00;;;7.85;;
37971;SDS011;23794;48.234;8.344;2023-01-29T00:15:20;11.55;;;7.47;;
37971;SDS011;23794;48.234;8.344;2023-01-29T00:17:47;11.27;;;7.95;;
37971;SDS011;23794;48.234;8.344;2023-01-29T00:20:13;11.77;;;7.85;;
37971;SDS011;23794;48.234;8.344;2023-01-29T00:22:41;10.68;;;7.65;;
37971;SDS011;23794;48.234;8.344;2023-01-29T00:25:08;14.32;;;8.13;;
37971;SDS011;23794;48.234;8.344;2023-01-29T00:27:34;11.30;;;7.80;;
37971;SDS011;23794;48.234;8.344;2023-01-29T00:30:02;10.60;;;7.60;;
37971;SDS011;23794;48.234;8.344;2023-01-29T00:32:38;10.43;;;7.05;;
37971;SDS011;23794;48.234;8.344;2023-01-29T00:35:05;10.80;;;7.70;;
37971;SDS011;23794;48.234;8.344;2023-01-29T00:37:33;12.43;;;8.32;;
37971;SDS011;23794;48.234;8.344;2023-01-29T00:40:00;10.60;;;7.43;;
37971;SDS011;23794;48.234;8.344;2023-01-29T00:42:27;12.95;;;8.18;;
37971;SDS011;23794;48.234;8.344;2023-01-29T00:45:12;13.75;;;8.18;;
37971;SDS011;23794;48.234;8.344;2023-01-29T00:47:39;13.93;;;9.07;;
37971;SDS011;23794;48.234;8.344;2023-01-29T00:50:07;12.00;;;7.88;;
37971;SDS011;23794;48.234;8.344;2023-01-29T00:52:36;10.05;;;7.18;;
37971;SDS011;23794;48.234;8.344;2023-01-29T00:55:04;12.07;;;8.02;;
37971;SDS011;23794;48.234;8.344;2023-01-29T00:57:31;11.43;;;7.30;;
37971;SDS011;23794;48.234;8.344;2023-01-29T00:59:59;13.23;;;8.98;;
37971;SDS011;23794;48.234;8.344;2023-01-29T01:02:26;11.23;;;7.20;;
37971;SDS011;23794;48.234;8.344;2023-01-29T01:05:13;11.25;;;7.70;;
37971;SDS011;23794;48.234;8.344;2023-01-29T01:07:53;9.70;;;6.82;;
37971;SDS011;23794;48.234;8.344;2023-01-29T01:10:26;10.77;;;6.72;;
37971;SDS011;23794;48.234;8.344;2023-01-29T01:13:04;8.63;;;6.07;;
37971;SDS011;23794;48.234;8.344;2023-01-29T01:15:33;8.50;;;6.03;;
37971;SDS011;23794;48.234;8.344;2023-01-29T01:18:02;9.25;;;6.63;;
37971;SDS011;23794;48.234;8.344;2023-01-29T01:20:30;9.50;;;7.00;;
37971;SDS011;23794;48.234;8.344;2023-01-29T01:22:59;8.15;;;6.28;;
37971;SDS011;23794;48.234;8.344;2023-01-29T01:25:26;9.90;;;6.63;;
37971;SDS011;23794;48.234;8.344;2023-01-29T01:27:54;7.70;;;5.55;;
37971;SDS011;23794;48.234;8.344;2023-01-29T01:30:21;7.97;;;5.22;;
37971;SDS011;23794;48.234;8.344;2023-01-29T01:32:49;7.30;;;5.03;;
37971;SDS011;23794;48.234;8.344;2023-01-29T01:35:16;8.13;;;5.82;;
37971;SDS011;23794;48.234;8.344;2023-01-29T01:37:43;8.40;;;5.63;;
37971;SDS011;23794;48.234;8.344;2023-01-29T01:42:54;7.50;;;4.97;;
37971;SDS011;23794;48.234;8.344;2023-01-29T01:45:25;10.43;;;6.38;;
37971;SDS011;23794;48.234;8.344;2023-01-29T01:48:18;7.30;;;5.18;;
37971;SDS011;23794;48.234;8.344;2023-01-29T01:50:55;7.40;;;4.68;;
37971;SDS011;23794;48.234;8.344;2023-01-29T01:53:30;6.88;;;4.53;;
37971;SDS011;23794;48.234;8.344;2023-01-29T01:56:01;7.82;;;4.60;;
37971;SDS011;23794;48.234;8.344;2023-01-29T01:58:33;7.80;;;4.93;;
37971;SDS011;23794;48.234;8.344;2023-01-29T02:01:03;8.15;;;5.65;;
37971;SDS011;23794;48.234;8.344;2023-01-29T02:03:43;7.28;;;5.20;;
37971;SDS011;23794;48.234;8.344;2023-01-29T02:06:34;7.32;;;5.22;;
37971;SDS011;23794;48.234;8.344;2023-01-29T02:09:24;7.70;;;5.68;;
37971;SDS011;23794;48.234;8.344;2023-01-29T02:11:59;8.25;;;5.70;;
37971;SDS011;23794;48.234;8.344;2023-01-29T02:14:26;9.82;;;5.78;;
37971;SDS011;23794;48.234;8.344;2023-01-29T02:16:53;9.23;;;5.55;;
37971;SDS011;23794;48.234;8.344;2023-01-29T02:22:28;7.95;;;5.90;;
37971;SDS011;23794;48.234;8.344;2023-01-29T02:28:01;7.15;;;4.72;;
37971;SDS011;23794;48.234;8.344;2023-01-29T02:33:35;8.10;;;5.50;;
37971;SDS011;23794;48.234;8.344;2023-01-29T02:42:00;8.63;;;6.32;;
37971;SDS011;23794;48.234;8.344;2023-01-29T02:47:18;7.15;;;4.97;;
37971;SDS011;23794;48.234;8.344;2023-01-29T02:49:55;7.28;;;5.28;;
37971;SDS011;23794;48.234;8.344;2023-01-29T02:52:33;7.68;;;5.00;;
37971;SDS011;23794;48.234;8.344;2023-01-29T02:55:07;7.32;;;5.13;;
37971;SDS011;23794;48.234;8.344;2023-01-29T02:57:39;8.63;;;5.70;;
37971;SDS011;23794;48.234;8.344;2023-01-29T03:05:33;9.48;;;5.97;;
37971;SDS011;23794;48.234;8.344;2023-01-29T03:08:10;9.57;;;6.40;;
37971;SDS011;23794;48.234;8.344;2023-01-29T03:10:50;8.15;;;6.13;;
37971;SDS011;23794;48.234;8.344;2023-01-29T03:13:31;8.53;;;5.53;;
37971;SDS011;23794;48.234;8.344;2023-01-29T03:16:06;8.88;;;5.70;;
37971;SDS011;23794;48.234;8.344;2023-01-29T03:18:46;8.15;;;5.78;;
37971;SDS011;23794;48.234;8.344;2023-01-29T03:21:26;8.45;;;5.47;;
37971;SDS011;23794;48.234;8.344;2023-01-29T03:24:25;7.18;;;5.07;;
37971;SDS011;23794;48.234;8.344;2023-01-29T03:27:22;7.22;;;5.60;;
37971;SDS011;23794;48.234;8.344;2023-01-29T03:30:11;10.15;;;5.45;;
37971;SDS011;23794;48.234;8.344;2023-01-29T03:35:57;9.02;;;5.65;;
37971;SDS011;23794;48.234;8.344;2023-01-29T03:38:28;7.63;;;5.03;;
37971;SDS011;23794;48.234;8.344;2023-01-29T03:41:59;7.45;;;5.30;;
37971;SDS011;23794;48.234;8.344;2023-01-29T03:44:13;9.35;;;5.03;;
37971;SDS011;23794;48.234;8.344;2023-01-29T03:46:57;10.20;;;6.15;;
37971;SDS011;23794;48.234;8.344;2023-01-29T03:50:10;8.82;;;4.93;;
37971;SDS011;23794;48.234;8.344;2023-01-29T03:52:51;9.25;;;5.25;;
37971;SDS011;23794;48.234;8.344;2023-01-29T03:58:40;7.82;;;5.45;;
37971;SDS011;23794;48.234;8.344;2023-01-29T04:04:06;7.67;;;5.37;;
37971;SDS011;23794;48.234;8.344;2023-01-29T04:06:40;7.43;;;5.18;;
37971;SDS011;23794;48.234;8.344;2023-01-29T04:09:19;7.55;;;5.38;;
37971;SDS011;23794;48.234;8.344;2023-01-29T04:11:54;9.70;;;5.83;;
37971;SDS011;23794;48.234;8.344;2023-01-29T04:14:28;7.65;;;5.95;;
37971;SDS011;23794;48.234;8.344;2023-01-29T04:16:58;7.93;;;5.50;;
37971;SDS011;23794;48.234;8.344;2023-01-29T04:19:40;8.48;;;5.60;;
37971;SDS011;23794;48.234;8.344;2023-01-29T04:22:12;9.02;;;5.45;;
37971;SDS011;23794;48.234;8.344;2023-01-29T04:24:45;7.03;;;4.82;;
37971;SDS011;23794;48.234;8.344;2023-01-29T04:27:20;9.38;;;5.70;;
37971;SDS011;23794;48.234;8.344;2023-01-29T04:29:55;6.93;;;5.00;;
37971;SDS011;23794;48.234;8.344;2023-01-29T04:35:22;8.07;;;5.80;;
37971;SDS011;23794;48.234;8.344;2023-01-29T04:43:26;8.43;;;5.75;;
37971;SDS011;23794;48.234;8.344;2023-01-29T04:48:50;7.97;;;5.25;;
37971;SDS011;23794;48.234;8.344;2023-01-29T04:51:34;8.40;;;5.45;;
37971;SDS011;23794;48.234;8.344;2023-01-29T04:59:30;7.78;;;5.13;;
37971;SDS011;23794;48.234;8.344;2023-01-29T05:02:16;9.10;;;5.55;;
37971;SDS011;23794;48.234;8.344;2023-01-29T05:04:44;8.88;;;5.88;;
37971;SDS011;23794;48.234;8.344;2023-01-29T05:07:13;9.82;;;6.55;;
37971;SDS011;23794;48.234;8.344;2023-01-29T05:09:42;8.57;;;5.85;;
37971;SDS011;23794;48.234;8.344;2023-01-29T05:12:11;9.50;;;6.13;;
37971;SDS011;23794;48.234;8.344;2023-01-29T05:14:41;9.10;;;5.90;;
37971;SDS011;23794;48.234;8.344;2023-01-29T05:17:14;10.07;;;6.03;;
37971;SDS011;23794;48.234;8.344;2023-01-29T05:19:43;8.57;;;5.57;;
37971;SDS011;23794;48.234;8.344;2023-01-29T05:22:11;9.00;;;5.85;;
37971;SDS011;23794;48.234;8.344;2023-01-29T05:24:41;8.48;;;5.40;;
37971;SDS011;23794;48.234;8.344;2023-01-29T05:27:09;8.57;;;5.45;;
37971;SDS011;23794;48.234;8.344;2023-01-29T05:30:02;8.27;;;5.50;;
37971;SDS011;23794;48.234;8.344;2023-01-29T05:32:29;10.18;;;6.20;;
37971;SDS011;23794;48.234;8.344;2023-01-29T05:34:56;10.80;;;7.10;;
37971;SDS011;23794;48.234;8.344;2023-01-29T05:37:23;9.05;;;6.68;;
37971;SDS011;23794;48.234;8.344;2023-01-29T05:39:49;8.90;;;6.45;;
37971;SDS011;23794;48.234;8.344;2023-01-29T05:42:16;9.98;;;6.28;;
37971;SDS011;23794;48.234;8.344;2023-01-29T05:44:42;7.97;;;5.78;;
37971;SDS011;23794;48.234;8.344;2023-01-29T05:47:09;8.10;;;5.63;;
37971;SDS011;23794;48.234;8.344;2023-01-29T05:49:36;8.70;;;5.88;;
37971;SDS011;23794;48.234;8.344;2023-01-29T05:52:04;7.65;;;5.53;;
37971;SDS011;23794;48.234;8.344;2023-01-29T05:54:30;7.47;;;5.22;;
37971;SDS011;23794;48.234;8.344;2023-01-29T05:56:57;8.05;;;5.57;;
37971;SDS011;23794;48.234;8.344;2023-01-29T05:59:23;8.40;;;5.60;;
37971;SDS011;23794;48.234;8.344;2023-01-29T06:01:50;10.18;;;6.22;;
37971;SDS011;23794;48.234;8.344;2023-01-29T06:04:17;8.27;;;5.97;;
37971;SDS011;23794;48.234;8.344;2023-01-29T06:06:43;8.00;;;5.80;;
37971;SDS011;23794;48.234;8.344;2023-01-29T06:09:10;7.55;;;5.35;;
37971;SDS011;23794;48.234;8.344;2023-01-29T06:11:37;6.97;;;5.22;;
37971;SDS011;23794;48.234;8.344;2023-01-29T06:14:03;7.63;;;5.38;;
37971;SDS011;23794;48.234;8.344;2023-01-29T06:16:30;6.88;;;4.85;;
37971;SDS011;23794;48.234;8.344;2023-01-29T06:18:57;7.70;;;5.20;;
37971;SDS011;23794;48.234;8.344;2023-01-29T06:21:23;6.43;;;4.20;;
37971;SDS011;23794;48.234;8.344;2023-01-29T06:23:53;5.88;;;4.50;;
37971;SDS011;23794;48.234;8.344;2023-01-29T06:26:20;6.47;;;5.45;;
37971;SDS011;23794;48.234;8.344;2023-01-29T06:28:49;7.88;;;4.88;;
37971;SDS011;23794;48.234;8.344;2023-01-29T06:31:16;9.77;;;6.15;;
37971;SDS011;23794;48.234;8.344;2023-01-29T06:34:03;6.85;;;5.13;;
37971;SDS011;23794;48.234;8.344;2023-01-29T06:36:30;5.60;;;4.18;;
37971;SDS011;23794;48.234;8.344;2023-01-29T06:38:57;6.25;;;4.57;;
37971;SDS011;23794;48.234;8.344;2023-01-29T06:41:23;7.78;;;4.43;;
37971;SDS011;23794;48.234;8.344;2023-01-29T06:43:52;5.65;;;3.72;;
37971;SDS011;23794;48.234;8.344;2023-01-29T06:46:19;5.85;;;4.13;;
37971;SDS011;23794;48.234;8.344;2023-01-29T06:48:46;5.60;;;4.43;;
37971;SDS011;23794;48.234;8.344;2023-01-29T06:51:12;6.22;;;4.18;;
37971;SDS011;23794;48.234;8.344;2023-01-29T06:53:39;5.63;;;4.40;;
37971;SDS011;23794;48.234;8.344;2023-01-29T06:56:07;5.63;;;3.88;;
37971;SDS011;23794;48.234;8.344;2023-01-29T06:58:37;4.63;;;3.75;;
37971;SDS011;23794;48.234;8.344;2023-01-29T07:01:09;5.00;;;3.75;;
37971;SDS011;23794;48.234;8.344;2023-01-29T07:03:50;5.10;;;3.45;;
37971;SDS011;23794;48.234;8.344;2023-01-29T07:06:17;5.47;;;4.35;;
37971;SDS011;23794;48.234;8.344;2023-01-29T07:08:44;5.90;;;4.38;;
37971;SDS011;23794;48.234;8.344;2023-01-29T07:11:11;5.57;;;3.92;;
37971;SDS011;23794;48.234;8.344;2023-01-29T07:13:37;5.90;;;4.47;;
37971;SDS011;23794;48.234;8.344;2023-01-29T07:16:04;6.30;;;4.68;;
37971;SDS011;23794;48.234;8.344;2023-01-29T07:18:32;6.18;;;4.00;;
37971;SDS011;23794;48.234;8.344;2023-01-29T07:20:58;5.75;;;3.72;;
37971;SDS011;23794;48.234;8.344;2023-01-29T07:23:29;5.60;;;4.05;;
37971;SDS011;23794;48.234;8.344;2023-01-29T07:25:58;5.68;;;4.07;;
37971;SDS011;23794;48.234;8.344;2023-01-29T07:28:26;5.45;;;3.42;;
37971;SDS011;23794;48.234;8.344;2023-01-29T07:30:57;5.68;;;3.83;;
37971;SDS011;23794;48.234;8.344;2023-01-29T07:33:24;6.00;;;3.97;;
37971;SDS011;23794;48.234;8.344;2023-01-29T07:35:51;5.97;;;4.72;;
37971;SDS011;23794;48.234;8.344;2023-01-29T07:38:18;5.90;;;3.60;;
37971;SDS011;23794;48.234;8.344;2023-01-29T07:40:45;5.22;;;3.80;;
37971;SDS011;23794;48.234;8.344;2023-01-29T07:43:12;6.20;;;3.85;;
37971;SDS011;23794;48.234;8.344;2023-01-29T07:45:39;5.28;;;3.67;;
37971;SDS011;23794;48.234;8.344;2023-01-29T07:48:08;4.72;;;3.83;;
37971;SDS011;23794;48.234;8.344;2023-01-29T07:50:36;7.70;;;4.50;;
37971;SDS011;23794;48.234;8.344;2023-01-29T07:53:03;5.75;;;3.60;;
37971;SDS011;23794;48.234;8.344;2023-01-29T07:55:30;4.97;;;3.83;;
37971;SDS011;23794;48.234;8.344;2023-01-29T07:57:58;5.93;;;4.30;;
37971;SDS011;23794;48.234;8.344;2023-01-29T08:00:27;5.68;;;4.05;;
37971;SDS011;23794;48.234;8.344;2023-01-29T08:03:00;4.65;;;3.47;;
37971;SDS011;23794;48.234;8.344;2023-01-29T08:05:28;7.25;;;4.15;;
37971;SDS011;23794;48.234;8.344;2023-01-29T08:07:54;4.22;;;3.05;;
37971;SDS011;23794;48.234;8.344;2023-01-29T08:10:32;3.53;;;2.90;;
37971;SDS011;23794;48.234;8.344;2023-01-29T08:13:00;3.78;;;2.67;;
37971;SDS011;23794;48.234;8.344;2023-01-29T08:15:28;4.85;;;3.42;;
37971;SDS011;23794;48.234;8.344;2023-01-29T08:17:55;4.63;;;3.72;;
37971;SDS011;23794;48.234;8.344;2023-01-29T08:20:23;4.72;;;3.17;;
37971;SDS011;23794;48.234;8.344;2023-01-29T08:22:57;5.35;;;3.75;;
37971;SDS011;23794;48.234;8.344;2023-01-29T08:25:25;4.90;;;3.50;;
37971;SDS011;23794;48.234;8.344;2023-01-29T08:27:53;5.22;;;3.53;;
37971;SDS011;23794;48.234;8.344;2023-01-29T08:30:21;4.70;;;3.60;;
37971;SDS011;23794;48.234;8.344;2023-01-29T08:32:47;4.18;;;3.15;;
37971;SDS011;23794;48.234;8.344;2023-01-29T08:35:14;3.97;;;3.00;;
37971;SDS011;23794;48.234;8.344;2023-01-29T08:37:40;3.80;;;3.10;;
37971;SDS011;23794;48.234;8.344;2023-01-29T08:40:07;4.30;;;3.08;;
37971;SDS011;23794;48.234;8.344;2023-01-29T08:42:36;5.05;;;3.15;;
37971;SDS011;23794;48.234;8.344;2023-01-29T08:45:02;4.35;;;3.15;;
37971;SDS011;23794;48.234;8.344;2023-01-29T08:47:30;3.55;;;2.40;;
37971;SDS011;23794;48.234;8.344;2023-01-29T08:49:56;5.10;;;3.90;;
37971;SDS011;23794;48.234;8.344;2023-01-29T08:52:23;5.60;;;3.20;;
37971;SDS011;23794;48.234;8.344;2023-01-29T08:54:49;4.30;;;3.05;;
37971;SDS011;23794;48.234;8.344;2023-01-29T08:57:16;6.30;;;2.85;;
37971;SDS011;23794;48.234;8.344;2023-01-29T08:59:43;3.42;;;2.40;;
37971;SDS011;23794;48.234;8.344;2023-01-29T09:02:10;3.97;;;2.88;;
37971;SDS011;23794;48.234;8.344;2023-01-29T09:04:37;4.63;;;3.22;;
37971;SDS011;23794;48.234;8.344;2023-01-29T09:07:03;5.78;;;2.75;;
37971;SDS011;23794;48.234;8.344;2023-01-29T09:09:30;5.22;;;3.05;;
37971;SDS011;23794;48.234;8.344;2023-01-29T09:11:56;4.38;;;2.83;;
37971;SDS011;23794;48.234;8.344;2023-01-29T09:14:23;4.22;;;2.40;;
37971;SDS011;23794;48.234;8.344;2023-01-29T09:16:50;4.78;;;3.15;;
37971;SDS011;23794;48.234;8.344;2023-01-29T09:19:16;4.82;;;3.38;;
37971;SDS011;23794;48.234;8.344;2023-01-29T09:21:44;5.38;;;3.63;;
37971;SDS011;23794;48.234;8.344;2023-01-29T09:24:11;5.13;;;3.33;;
37971;SDS011;23794;48.234;8.344;2023-01-29T09:26:37;4.03;;;2.90;;
37971;SDS011;23794;48.234;8.344;2023-01-29T09:29:05;3.47;;;2.55;;
37971;SDS011;23794;48.234;8.344;2023-01-29T09:31:32;4.38;;;3.03;;
37971;SDS011;23794;48.234;8.344;2023-01-29T09:33:59;3.40;;;2.60;;
37971;SDS011;23794;48.234;8.344;2023-01-29T09:36:26;4.53;;;3.08;;
37971;SDS011;23794;48.234;8.344;2023-01-29T09:38:52;4.22;;;2.90;;
37971;SDS011;23794;48.234;8.344;2023-01-29T09:43:56;3.42;;;2.33;;
37971;SDS011;23794;48.234;8.344;2023-01-29T09:46:37;3.83;;;3.08;;
37971;SDS011;23794;48.234;8.344;2023-01-29T09:49:08;3.47;;;2.60;;
37971;SDS011;23794;48.234;8.344;2023-01-29T09:51:41;3.50;;;2.60;;
37971;SDS011;23794;48.234;8.344;2023-01-29T09:54:24;4.70;;;2.80;;
37971;SDS011;23794;48.234;8.344;2023-01-29T09:56:57;4.05;;;3.03;;
37971;SDS011;23794;48.234;8.344;2023-01-29T09:59:25;4.97;;;3.00;;
37971;SDS011;23794;48.234;8.344;2023-01-29T10:05:06;8.23;;;3.92;;
37971;SDS011;23794;48.234;8.344;2023-01-29T10:08:00;10.18;;;4.43;;
37971;SDS011;23794;48.234;8.344;2023-01-29T10:13:36;12.27;;;4.75;;
37971;SDS011;23794;48.234;8.344;2023-01-29T10:24:36;4.32;;;2.63;;
37971;SDS011;23794;48.234;8.344;2023-01-29T10:27:09;3.90;;;3.20;;
37971;SDS011;23794;48.234;8.344;2023-01-29T10:29:40;4.38;;;3.00;;
37971;SDS011;23794;48.234;8.344;2023-01-29T10:32:10;5.53;;;3.80;;
37971;SDS011;23794;48.234;8.344;2023-01-29T10:34:44;4.32;;;3.20;;
37971;SDS011;23794;48.234;8.344;2023-01-29T10:37:15;5.18;;;2.80;;
37971;SDS011;23794;48.234;8.344;2023-01-29T10:44:59;5.22;;;3.80;;
37971;SDS011;23794;48.234;8.344;2023-01-29T10:56:29;3.90;;;3.25;;
37971;SDS011;23794;48.234;8.344;2023-01-29T10:59:22;4.82;;;3.10;;
37971;SDS011;23794;48.234;8.344;2023-01-29T11:02:07;3.58;;;2.67;;
37971;SDS011;23794;48.234;8.344;2023-01-29T11:04:40;3.78;;;2.60;;
37971;SDS011;23794;48.234;8.344;2023-01-29T11:07:07;4.38;;;2.83;;
37971;SDS011;23794;48.234;8.344;2023-01-29T11:09:35;4.20;;;3.20;;
37971;SDS011;23794;48.234;8.344;2023-01-29T11:12:13;3.78;;;2.90;;
37971;SDS011;23794;48.234;8.344;2023-01-29T11:17:19;4.22;;;3.30;;
37971;SDS011;23794;48.234;8.344;2023-01-29T11:19:50;5.85;;;3.78;;
37971;SDS011;23794;48.234;8.344;2023-01-29T11:22:22;5.07;;;4.00;;
37971;SDS011;23794;48.234;8.344;2023-01-29T11:27:58;3.78;;;2.88;;
37971;SDS011;23794;48.234;8.344;2023-01-29T11:33:18;5.07;;;3.55;;
37971;SDS011;23794;48.234;8.344;2023-01-29T11:35:48;6.05;;;3.30;;
37971;SDS011;23794;48.234;8.344;2023-01-29T11:38:19;3.20;;;2.42;;
37971;SDS011;23794;48.234;8.344;2023-01-29T11:40:49;4.22;;;3.30;;
37971;SDS011;23794;48.234;8.344;2023-01-29T11:43:27;3.85;;;2.70;;
37971;SDS011;23794;48.234;8.344;2023-01-29T11:45:57;3.22;;;2.85;;
37971;SDS011;23794;48.234;8.344;2023-01-29T11:48:31;4.75;;;3.38;;
37971;SDS011;23794;48.234;8.344;2023-01-29T11:51:05;3.65;;;2.67;;
37971;SDS011;23794;48.234;8.344;2023-01-29T11:53:36;4.88;;;3.08;;
37971;SDS011;23794;48.234;8.344;2023-01-29T11:56:04;4.25;;;2.97;;
37971;SDS011;23794;48.234;8.344;2023-01-29T11:58:42;4.45;;;3.30;;
37971;SDS011;23794;48.234;8.344;2023-01-29T12:01:11;4.03;;;3.17;;
37971;SDS011;23794;48.234;8.344;2023-01-29T12:03:43;3.47;;;2.87;;
37971;SDS011;23794;48.234;8.344;2023-01-29T12:08:59;4.28;;;3.40;;
37971;SDS011;23794;48.234;8.344;2023-01-29T12:11:28;3.95;;;2.95;;
37971;SDS011;23794;48.234;8.344;2023-01-29T12:14:00;4.03;;;2.70;;
37971;SDS011;23794;48.234;8.344;2023-01-29T12:16:37;4.00;;;3.13;;
37971;SDS011;23794;48.234;8.344;2023-01-29T12:19:29;3.53;;;2.70;;
37971;SDS011;23794;48.234;8.344;2023-01-29T12:22:24;4.32;;;3.00;;
37971;SDS011;23794;48.234;8.344;2023-01-29T12:33:50;3.55;;;2.92;;
37971;SDS011;23794;48.234;8.344;2023-01-29T12:36:51;3.85;;;2.80;;
37971;SDS011;23794;48.234;8.344;2023-01-29T12:39:24;3.88;;;2.72;;
37971;SDS011;23794;48.234;8.344;2023-01-29T12:44:39;3.75;;;2.92;;
37971;SDS011;23794;48.234;8.344;2023-01-29T12:47:13;3.08;;;2.50;;
37971;SDS011;23794;48.234;8.344;2023-01-29T12:49:44;4.30;;;3.13;;
37971;SDS011;23794;48.234;8.344;2023-01-29T12:52:27;4.00;;;2.75;;
37971;SDS011;23794;48.234;8.344;2023-01-29T12:55:10;4.53;;;2.88;;
37971;SDS011;23794;48.234;8.344;2023-01-29T13:00:18;4.43;;;3.22;;
37971;SDS011;23794;48.234;8.344;2023-01-29T13:02:53;4.07;;;2.85;;
37971;SDS011;23794;48.234;8.344;2023-01-29T13:05:25;3.78;;;2.90;;
37971;SDS011;23794;48.234;8.344;2023-01-29T13:08:07;4.30;;;3.45;;
37971;SDS011;23794;48.234;8.344;2023-01-29T13:10:40;3.30;;;2.58;;
37971;SDS011;23794;48.234;8.344;2023-01-29T13:15:58;4.30;;;2.78;;
37971;SDS011;23794;48.234;8.344;2023-01-29T13:21:20;5.85;;;2.90;;
37971;SDS011;23794;48.234;8.344;2023-01-29T13:23:51;4.65;;;2.65;;
37971;SDS011;23794;48.234;8.344;2023-01-29T13:26:21;4.05;;;2.65;;
37971;SDS011;23794;48.234;8.344;2023-01-29T13:28:48;4.40;;;3.17;;
37971;SDS011;23794;48.234;8.344;2023-01-29T13:36:44;4.35;;;2.90;;
37971;SDS011;23794;48.234;8.344;2023-01-29T13:39:29;4.45;;;3.25;;
37971;SDS011;23794;48.234;8.344;2023-01-29T13:44:50;4.78;;;3.33;;
37971;SDS011;23794;48.234;8.344;2023-01-29T13:47:30;3.72;;;2.90;;
37971;SDS011;23794;48.234;8.344;2023-01-29T13:50:18;4.03;;;3.05;;
37971;SDS011;23794;48.234;8.344;2023-01-29T13:52:52;4.80;;;3.38;;
37971;SDS011;23794;48.234;8.344;2023-01-29T13:55:21;3.00;;;2.60;;
37971;SDS011;23794;48.234;8.344;2023-01-29T13:57:56;4.47;;;3.25;;
37971;SDS011;23794;48.234;8.344;2023-01-29T14:07:56;4.38;;;3.10;;
37971;SDS011;23794;48.234;8.344;2023-01-29T14:10:36;4.72;;;3.20;;
37971;SDS011;23794;48.234;8.344;2023-01-29T14:15:36;5.63;;;3.80;;
37971;SDS011;23794;48.234;8.344;2023-01-29T14:20:36;5.00;;;3.83;;
37971;SDS011;23794;48.234;8.344;2023-01-29T14:26:17;4.35;;;3.17;;
37971;SDS011;23794;48.234;8.344;2023-01-29T14:28:58;6.38;;;3.85;;
37971;SDS011;23794;48.234;8.344;2023-01-29T14:34:03;6.85;;;3.75;;
37971;SDS011;23794;48.234;8.344;2023-01-29T14:36:40;5.25;;;3.63;;
37971;SDS011;23794;48.234;8.344;2023-01-29T14:39:19;4.97;;;3.60;;
37971;SDS011;23794;48.234;8.344;2023-01-29T14:41:54;5.95;;;3.67;;
37971;SDS011;23794;48.234;8.344;2023-01-29T14:44:45;5.07;;;3.45;;
37971;SDS011;23794;48.234;8.344;2023-01-29T14:52:44;5.93;;;3.65;;
37971;SDS011;23794;48.234;8.344;2023-01-29T14:55:25;6.22;;;4.07;;
37971;SDS011;23794;48.234;8.344;2023-01-29T14:57:56;5.40;;;3.63;;
37971;SDS011;23794;48.234;8.344;2023-01-29T15:00:28;4.88;;;3.40;;
37971;SDS011;23794;48.234;8.344;2023-01-29T15:02:59;4.88;;;3.75;;
37971;SDS011;23794;48.234;8.344;2023-01-29T15:05:30;5.10;;;3.65;;
37971;SDS011;23794;48.234;8.344;2023-01-29T15:08:18;4.80;;;3.75;;
37971;SDS011;23794;48.234;8.344;2023-01-29T15:10:56;5.78;;;3.95;;
37971;SDS011;23794;48.234;8.344;2023-01-29T15:13:49;6.65;;;3.92;;
37971;SDS011;23794;48.234;8.344;2023-01-29T15:16:24;5.30;;;3.45;;
37971;SDS011;23794;48.234;8.344;2023-01-29T15:19:04;4.90;;;3.13;;
37971;SDS011;23794;48.234;8.344;2023-01-29T15:21:38;5.67;;;3.87;;
37971;SDS011;23794;48.234;8.344;2023-01-29T15:24:05;4.72;;;3.03;;
37971;SDS011;23794;48.234;8.344;2023-01-29T15:26:32;4.32;;;3.25;;
37971;SDS011;23794;48.234;8.344;2023-01-29T15:29:01;5.40;;;3.58;;
37971;SDS011;23794;48.234;8.344;2023-01-29T15:31:30;8.85;;;5.93;;
37971;SDS011;23794;48.234;8.344;2023-01-29T15:33:57;7.43;;;5.18;;
37971;SDS011;23794;48.234;8.344;2023-01-29T15:36:30;10.15;;;6.18;;
37971;SDS011;23794;48.234;8.344;2023-01-29T15:41:49;11.25;;;7.40;;
37971;SDS011;23794;48.234;8.344;2023-01-29T15:44:32;10.85;;;7.00;;
37971;SDS011;23794;48.234;8.344;2023-01-29T15:46:59;10.18;;;5.95;;
37971;SDS011;23794;48.234;8.344;2023-01-29T15:49:31;9.05;;;6.57;;
37971;SDS011;23794;48.234;8.344;2023-01-29T15:52:04;10.68;;;7.35;;
37971;SDS011;23794;48.234;8.344;2023-01-29T15:54:41;11.27;;;7.20;;
37971;SDS011;23794;48.234;8.344;2023-01-29T15:57:12;12.18;;;7.47;;
37971;SDS011;23794;48.234;8.344;2023-01-29T15:59:45;12.23;;;8.32;;
37971;SDS011;23794;48.234;8.344;2023-01-29T16:05:09;12.10;;;7.85;;
37971;SDS011;23794;48.234;8.344;2023-01-29T16:07:39;11.68;;;8.25;;
37971;SDS011;23794;48.234;8.344;2023-01-29T16:10:12;12.73;;;8.05;;
37971;SDS011;23794;48.234;8.344;2023-01-29T16:12:42;11.48;;;7.00;;
37971;SDS011;23794;48.234;8.344;2023-01-29T16:15:15;12.50;;;8.00;;
37971;SDS011;23794;48.234;8.344;2023-01-29T16:17:53;12.55;;;8.00;;
37971;SDS011;23794;48.234;8.344;2023-01-29T16:20:29;13.25;;;7.57;;
37971;SDS011;23794;48.234;8.344;2023-01-29T16:23:00;12.88;;;8.68;;
37971;SDS011;23794;48.234;8.344;2023-01-29T16:25:26;12.48;;;7.72;;
37971;SDS011;23794;48.234;8.344;2023-01-29T16:27:54;12.70;;;7.88;;
37971;SDS011;23794;48.234;8.344;2023-01-29T16:30:23;9.63;;;6.82;;
37971;SDS011;23794;48.234;8.344;2023-01-29T16:32:52;11.57;;;7.60;;
37971;SDS011;23794;48.234;8.344;2023-01-29T16:35:27;9.98;;;7.35;;
37971;SDS011;23794;48.234;8.344;2023-01-29T16:37:53;11.43;;;7.65;;
37971;SDS011;23794;48.234;8.344;2023-01-29T16:40:29;11.20;;;7.50;;
37971;SDS011;23794;48.234;8.344;2023-01-29T16:43:30;13.32;;;7.55;;
37971;SDS011;23794;48.234;8.344;2023-01-29T16:46:32;14.65;;;9.63;;
37971;SDS011;23794;48.234;8.344;2023-01-29T16:48:59;13.60;;;8.68;;
37971;SDS011;23794;48.234;8.344;2023-01-29T16:54:11;14.10;;;8.23;;
37971;SDS011;23794;48.234;8.344;2023-01-29T16:56:44;12.88;;;7.82;;
37971;SDS011;23794;48.234;8.344;2023-01-29T16:59:15;11.65;;;7.70;;
37971;SDS011;23794;48.234;8.344;2023-01-29T17:01:45;12.32;;;7.68;;
37971;SDS011;23794;48.234;8.344;2023-01-29T17:04:15;11.88;;;7.68;;
37971;SDS011;23794;48.234;8.344;2023-01-29T17:06:44;11.32;;;7.75;;
37971;SDS011;23794;48.234;8.344;2023-01-29T17:09:21;14.82;;;8.55;;
37971;SDS011;23794;48.234;8.344;2023-01-29T17:11:52;14.27;;;8.45;;
37971;SDS011;23794;48.234;8.344;2023-01-29T17:14:22;13.05;;;8.35;;
37971;SDS011;23794;48.234;8.344;2023-01-29T17:16:55;13.30;;;7.35;;
37971;SDS011;23794;48.234;8.344;2023-01-29T17:19:29;10.75;;;7.20;;
37971;SDS011;23794;48.234;8.344;2023-01-29T17:21:56;15.60;;;8.68;;
37971;SDS011;23794;48.234;8.344;2023-01-29T17:24:27;14.82;;;8.77;;
37971;SDS011;23794;48.234;8.344;2023-01-29T17:26:59;14.77;;;8.63;;
37971;SDS011;23794;48.234;8.344;2023-01-29T17:29:28;13.48;;;8.80;;
37971;SDS011;23794;48.234;8.344;2023-01-29T17:31:56;12.95;;;8.73;;
37971;SDS011;23794;48.234;8.344;2023-01-29T17:34:25;15.23;;;8.90;;
37971;SDS011;23794;48.234;8.344;2023-01-29T17:36:51;13.75;;;9.52;;
37971;SDS011;23794;48.234;8.344;2023-01-29T17:39:19;11.68;;;7.03;;
37971;SDS011;23794;48.234;8.344;2023-01-29T17:41:51;14.05;;;9.23;;
37971;SDS011;23794;48.234;8.344;2023-01-29T17:44:20;14.73;;;8.80;;
37971;SDS011;23794;48.234;8.344;2023-01-29T17:46:47;12.80;;;8.43;;
37971;SDS011;23794;48.234;8.344;2023-01-29T17:51:51;13.27;;;8.18;;